< Cyclone 201125 2011 Season Cyclone 201201 >
Cyclone 201129 (Errol)
General InformationTrack Information on Google MapsDetailed Wind InformationList of All Images || ResourceGoogle EarthGE AnimationAtom FeedGeoJSON
Detalied Best Track (Time Zone = UTC)
Year Month Day Hour Lat. Long. Pressure (hPa) Wind (kt) Class Image Chart
2011 4 12 00 -10.9 125.0 1004 0 0 Image --
2011 4 12 06 -11.1 125.4 1004 0 0 Image --
2011 4 12 12 -11.4 125.5 1004 0 0 Image --
2011 4 12 18 -11.7 125.5 1004 0 0 Image --
2011 4 13 00 -11.7 125.8 1004 0 0 Image --
2011 4 13 06 -11.8 125.9 1004 0 0 Image --
2011 4 13 12 -11.8 126.0 1004 0 0 Image --
2011 4 13 18 -11.8 125.9 1004 25 2 Image --
2011 4 14 00 -12.2 126.1 1004 25 2 Image --
2011 4 14 03 -12.2 126.2 1002 25 2 Image --
2011 4 14 06 -12.2 126.2 1000 25 2 Image --
2011 4 14 09 -12.4 126.3 1000 25 2 Image --
2011 4 14 12 -12.4 126.3 1000 25 2 Image --
2011 4 14 18 -12.5 126.3 1000 30 2 Image --
2011 4 14 21 -12.6 126.2 998 30 2 Image --
2011 4 15 00 -12.6 126.1 996 35 3 Image --
2011 4 15 03 -12.6 126.1 996 40 3 Image --
2011 4 15 06 -12.6 126.1 996 40 3 Image --
2011 4 15 09 -12.6 125.9 996 40 3 Image --
2011 4 15 12 -12.5 126.0 996 40 3 Image --
2011 4 15 15 -12.3 125.8 997 40 3 Image --
2011 4 15 18 -12.0 125.4 997 40 3 Image --
2011 4 15 21 -11.9 125.3 993 45 3 Image --
2011 4 16 00 -11.6 125.1 989 50 4 Image --
2011 4 16 03 -11.4 124.9 987 55 4 Image --
2011 4 16 06 -11.2 124.8 986 55 4 Image --
2011 4 16 09 -11.1 124.7 986 55 4 Image --
2011 4 16 12 -10.9 124.7 986 55 4 Image --
2011 4 16 15 -10.9 124.6 986 55 4 Image --
2011 4 16 18 -11.0 124.4 991 50 4 Image --
2011 4 17 00 -10.8 124.1 993 50 4 Image --
2011 4 17 06 -10.9 124.0 999 40 3 Image --
2011 4 17 12 -10.9 123.2 1001 35 3 Image --
2011 4 17 18 -10.5 123.6 1000 35 3 Image --
2011 4 18 00 -10.1 123.5 1002 30 2 Image --
< Cyclone 201125 2011 Season Cyclone 201201 >

Help